sensor_id;sensor_type;location;lat;lon;timestamp;P1;durP1;ratioP1;P2;durP2;ratioP2
70838;SDS011;58464;52.298;4.852;2023-02-11T00:01:42;22.75;;;4.47;;
70838;SDS011;58464;52.298;4.852;2023-02-11T00:04:08;16.77;;;4.00;;
70838;SDS011;58464;52.298;4.852;2023-02-11T00:06:33;32.20;;;5.43;;
70838;SDS011;58464;52.298;4.852;2023-02-11T00:09:00;26.23;;;4.93;;
70838;SDS011;58464;52.298;4.852;2023-02-11T00:11:25;19.65;;;3.42;;
70838;SDS011;58464;52.298;4.852;2023-02-11T00:13:54;30.42;;;5.20;;
70838;SDS011;58464;52.298;4.852;2023-02-11T00:16:20;23.58;;;5.30;;
70838;SDS011;58464;52.298;4.852;2023-02-11T00:18:45;21.03;;;5.60;;
70838;SDS011;58464;52.298;4.852;2023-02-11T00:21:12;23.60;;;4.38;;
70838;SDS011;58464;52.298;4.852;2023-02-11T00:23:37;19.85;;;4.13;;
70838;SDS011;58464;52.298;4.852;2023-02-11T00:26:03;22.23;;;4.35;;
70838;SDS011;58464;52.298;4.852;2023-02-11T00:28:28;22.02;;;4.63;;
70838;SDS011;58464;52.298;4.852;2023-02-11T00:30:54;21.00;;;5.55;;
70838;SDS011;58464;52.298;4.852;2023-02-11T00:33:20;25.45;;;5.78;;
70838;SDS011;58464;52.298;4.852;2023-02-11T00:35:45;20.27;;;4.37;;
70838;SDS011;58464;52.298;4.852;2023-02-11T00:38:10;22.10;;;3.93;;
70838;SDS011;58464;52.298;4.852;2023-02-11T00:40:35;20.87;;;4.73;;
70838;SDS011;58464;52.298;4.852;2023-02-11T00:43:01;29.37;;;6.47;;
70838;SDS011;58464;52.298;4.852;2023-02-11T00:45:26;29.25;;;5.88;;
70838;SDS011;58464;52.298;4.852;2023-02-11T00:47:52;19.42;;;5.15;;
70838;SDS011;58464;52.298;4.852;2023-02-11T00:50:18;30.83;;;5.90;;
70838;SDS011;58464;52.298;4.852;2023-02-11T00:52:43;28.48;;;6.75;;
70838;SDS011;58464;52.298;4.852;2023-02-11T00:55:08;22.63;;;5.53;;
70838;SDS011;58464;52.298;4.852;2023-02-11T00:57:33;28.67;;;6.67;;
70838;SDS011;58464;52.298;4.852;2023-02-11T00:59:59;28.77;;;6.30;;
70838;SDS011;58464;52.298;4.852;2023-02-11T01:02:24;34.30;;;6.63;;
70838;SDS011;58464;52.298;4.852;2023-02-11T01:04:49;23.88;;;5.82;;
70838;SDS011;58464;52.298;4.852;2023-02-11T01:07:14;20.20;;;5.43;;
70838;SDS011;58464;52.298;4.852;2023-02-11T01:09:40;36.63;;;8.85;;
70838;SDS011;58464;52.298;4.852;2023-02-11T01:12:05;24.43;;;6.73;;
70838;SDS011;58464;52.298;4.852;2023-02-11T01:14:30;26.25;;;6.43;;
70838;SDS011;58464;52.298;4.852;2023-02-11T01:16:55;16.23;;;5.07;;
70838;SDS011;58464;52.298;4.852;2023-02-11T01:19:21;28.63;;;6.13;;
70838;SDS011;58464;52.298;4.852;2023-02-11T01:21:46;30.40;;;7.22;;
70838;SDS011;58464;52.298;4.852;2023-02-11T01:24:11;22.90;;;6.27;;
70838;SDS011;58464;52.298;4.852;2023-02-11T01:26:36;24.87;;;7.43;;
70838;SDS011;58464;52.298;4.852;2023-02-11T01:29:02;22.77;;;6.70;;
70838;SDS011;58464;52.298;4.852;2023-02-11T01:31:28;33.20;;;8.48;;
70838;SDS011;58464;52.298;4.852;2023-02-11T01:33:54;32.10;;;7.82;;
70838;SDS011;58464;52.298;4.852;2023-02-11T01:36:19;23.20;;;7.17;;
70838;SDS011;58464;52.298;4.852;2023-02-11T01:38:44;31.97;;;8.87;;
70838;SDS011;58464;52.298;4.852;2023-02-11T01:41:12;36.95;;;10.93;;
70838;SDS011;58464;52.298;4.852;2023-02-11T01:43:43;29.77;;;8.43;;
70838;SDS011;58464;52.298;4.852;2023-02-11T01:48:58;25.55;;;9.18;;
70838;SDS011;58464;52.298;4.852;2023-02-11T01:51:26;30.55;;;10.38;;
70838;SDS011;58464;52.298;4.852;2023-02-11T01:53:54;28.90;;;9.40;;
70838;SDS011;58464;52.298;4.852;2023-02-11T01:56:38;29.63;;;9.52;;
70838;SDS011;58464;52.298;4.852;2023-02-11T01:59:32;26.08;;;8.55;;
70838;SDS011;58464;52.298;4.852;2023-02-11T02:02:00;31.48;;;7.70;;
70838;SDS011;58464;52.298;4.852;2023-02-11T02:04:27;33.08;;;8.13;;
70838;SDS011;58464;52.298;4.852;2023-02-11T02:06:58;30.23;;;8.90;;
70838;SDS011;58464;52.298;4.852;2023-02-11T02:09:27;34.00;;;8.93;;
70838;SDS011;58464;52.298;4.852;2023-02-11T02:11:55;24.98;;;7.70;;
70838;SDS011;58464;52.298;4.852;2023-02-11T02:14:20;35.20;;;10.00;;
70838;SDS011;58464;52.298;4.852;2023-02-11T02:16:45;33.72;;;9.20;;
70838;SDS011;58464;52.298;4.852;2023-02-11T02:19:28;30.75;;;9.55;;
70838;SDS011;58464;52.298;4.852;2023-02-11T02:40:22;32.15;;;8.50;;
70838;SDS011;58464;52.298;4.852;2023-02-11T02:42:50;31.98;;;9.15;;
70838;SDS011;58464;52.298;4.852;2023-02-11T02:45:16;28.35;;;8.80;;
70838;SDS011;58464;52.298;4.852;2023-02-11T02:47:42;41.55;;;9.60;;
70838;SDS011;58464;52.298;4.852;2023-02-11T02:50:07;25.97;;;8.37;;
70838;SDS011;58464;52.298;4.852;2023-02-11T02:57:37;43.33;;;10.20;;
70838;SDS011;58464;52.298;4.852;2023-02-11T03:05:05;31.65;;;9.60;;
70838;SDS011;58464;52.298;4.852;2023-02-11T03:07:40;39.10;;;10.25;;
70838;SDS011;58464;52.298;4.852;2023-02-11T03:10:07;30.80;;;9.18;;
70838;SDS011;58464;52.298;4.852;2023-02-11T03:12:33;38.20;;;9.77;;
70838;SDS011;58464;52.298;4.852;2023-02-11T03:14:59;38.20;;;11.60;;
70838;SDS011;58464;52.298;4.852;2023-02-11T03:17:25;35.60;;;12.13;;
70838;SDS011;58464;52.298;4.852;2023-02-11T03:19:52;47.30;;;11.80;;
70838;SDS011;58464;52.298;4.852;2023-02-11T03:22:19;36.80;;;10.23;;
70838;SDS011;58464;52.298;4.852;2023-02-11T03:24:46;31.35;;;10.85;;
70838;SDS011;58464;52.298;4.852;2023-02-11T03:27:17;30.55;;;11.20;;
70838;SDS011;58464;52.298;4.852;2023-02-11T03:32:24;39.63;;;10.70;;
70838;SDS011;58464;52.298;4.852;2023-02-11T03:34:52;41.58;;;11.40;;
70838;SDS011;58464;52.298;4.852;2023-02-11T03:37:23;31.60;;;10.55;;
70838;SDS011;58464;52.298;4.852;2023-02-11T03:39:51;31.85;;;11.13;;
70838;SDS011;58464;52.298;4.852;2023-02-11T03:42:17;32.88;;;11.20;;
70838;SDS011;58464;52.298;4.852;2023-02-11T03:44:45;19.10;;;7.90;;
70838;SDS011;58464;52.298;4.852;2023-02-11T03:47:11;36.15;;;11.07;;
70838;SDS011;58464;52.298;4.852;2023-02-11T03:49:37;31.83;;;9.82;;
70838;SDS011;58464;52.298;4.852;2023-02-11T03:52:03;43.20;;;12.13;;
70838;SDS011;58464;52.298;4.852;2023-02-11T03:54:30;41.10;;;11.65;;
70838;SDS011;58464;52.298;4.852;2023-02-11T03:56:57;42.50;;;12.60;;
70838;SDS011;58464;52.298;4.852;2023-02-11T03:59:23;26.50;;;10.88;;
70838;SDS011;58464;52.298;4.852;2023-02-11T04:01:48;53.08;;;13.43;;
70838;SDS011;58464;52.298;4.852;2023-02-11T04:04:14;31.02;;;12.25;;
70838;SDS011;58464;52.298;4.852;2023-02-11T04:06:39;35.15;;;12.93;;
70838;SDS011;58464;52.298;4.852;2023-02-11T04:09:04;36.63;;;13.43;;
70838;SDS011;58464;52.298;4.852;2023-02-11T04:11:30;41.42;;;11.98;;
70838;SDS011;58464;52.298;4.852;2023-02-11T04:13:55;45.73;;;14.07;;
70838;SDS011;58464;52.298;4.852;2023-02-11T04:16:20;34.10;;;13.20;;
70838;SDS011;58464;52.298;4.852;2023-02-11T04:18:46;44.10;;;13.48;;
70838;SDS011;58464;52.298;4.852;2023-02-11T04:21:11;34.92;;;13.73;;
70838;SDS011;58464;52.298;4.852;2023-02-11T04:23:37;25.15;;;9.90;;
70838;SDS011;58464;52.298;4.852;2023-02-11T04:26:02;25.13;;;11.40;;
70838;SDS011;58464;52.298;4.852;2023-02-11T04:28:27;42.60;;;12.93;;
70838;SDS011;58464;52.298;4.852;2023-02-11T04:30:53;37.53;;;14.32;;
70838;SDS011;58464;52.298;4.852;2023-02-11T04:33:20;42.53;;;13.75;;
70838;SDS011;58464;52.298;4.852;2023-02-11T04:35:47;39.45;;;14.70;;
70838;SDS011;58464;52.298;4.852;2023-02-11T04:38:12;30.83;;;13.98;;
70838;SDS011;58464;52.298;4.852;2023-02-11T04:40:37;35.70;;;14.43;;
70838;SDS011;58464;52.298;4.852;2023-02-11T04:43:02;33.08;;;13.18;;
70838;SDS011;58464;52.298;4.852;2023-02-11T04:45:28;29.63;;;12.77;;
70838;SDS011;58464;52.298;4.852;2023-02-11T04:47:53;37.20;;;15.33;;
70838;SDS011;58464;52.298;4.852;2023-02-11T04:50:18;32.30;;;14.30;;
70838;SDS011;58464;52.298;4.852;2023-02-11T04:52:43;42.33;;;15.13;;
70838;SDS011;58464;52.298;4.852;2023-02-11T04:55:09;44.80;;;15.65;;
70838;SDS011;58464;52.298;4.852;2023-02-11T04:57:34;42.33;;;16.23;;
70838;SDS011;58464;52.298;4.852;2023-02-11T04:59:59;36.38;;;14.82;;
70838;SDS011;58464;52.298;4.852;2023-02-11T05:02:24;39.65;;;16.10;;
70838;SDS011;58464;52.298;4.852;2023-02-11T05:04:50;29.07;;;11.53;;
70838;SDS011;58464;52.298;4.852;2023-02-11T05:07:15;37.63;;;11.33;;
70838;SDS011;58464;52.298;4.852;2023-02-11T05:09:40;39.33;;;15.37;;
70838;SDS011;58464;52.298;4.852;2023-02-11T05:12:05;38.55;;;15.40;;
70838;SDS011;58464;52.298;4.852;2023-02-11T05:14:31;33.97;;;13.60;;
70838;SDS011;58464;52.298;4.852;2023-02-11T05:16:57;35.67;;;15.23;;
70838;SDS011;58464;52.298;4.852;2023-02-11T05:19:22;33.45;;;14.95;;
70838;SDS011;58464;52.298;4.852;2023-02-11T05:21:47;33.65;;;13.07;;
70838;SDS011;58464;52.298;4.852;2023-02-11T05:24:13;43.53;;;16.85;;
70838;SDS011;58464;52.298;4.852;2023-02-11T05:26:38;35.03;;;13.27;;
70838;SDS011;58464;52.298;4.852;2023-02-11T05:29:03;35.60;;;16.13;;
70838;SDS011;58464;52.298;4.852;2023-02-11T05:31:28;33.50;;;15.40;;
70838;SDS011;58464;52.298;4.852;2023-02-11T05:33:53;34.53;;;15.40;;
70838;SDS011;58464;52.298;4.852;2023-02-11T05:48:30;30.10;;;11.70;;
70838;SDS011;58464;52.298;4.852;2023-02-11T05:50:56;31.65;;;13.15;;
70838;SDS011;58464;52.298;4.852;2023-02-11T05:53:21;34.73;;;16.47;;
70838;SDS011;58464;52.298;4.852;2023-02-11T05:55:46;37.95;;;15.65;;
70838;SDS011;58464;52.298;4.852;2023-02-11T05:58:12;36.22;;;15.40;;
70838;SDS011;58464;52.298;4.852;2023-02-11T06:00:37;33.72;;;14.60;;
70838;SDS011;58464;52.298;4.852;2023-02-11T06:03:03;32.58;;;13.43;;
70838;SDS011;58464;52.298;4.852;2023-02-11T06:05:28;27.80;;;11.10;;
70838;SDS011;58464;52.298;4.852;2023-02-11T06:07:54;31.70;;;11.98;;
70838;SDS011;58464;52.298;4.852;2023-02-11T06:10:19;28.35;;;12.48;;
70838;SDS011;58464;52.298;4.852;2023-02-11T06:12:44;22.27;;;11.07;;
70838;SDS011;58464;52.298;4.852;2023-02-11T06:15:10;34.10;;;14.63;;
70838;SDS011;58464;52.298;4.852;2023-02-11T06:17:35;33.50;;;12.27;;
70838;SDS011;58464;52.298;4.852;2023-02-11T06:20:02;27.35;;;11.07;;
70838;SDS011;58464;52.298;4.852;2023-02-11T06:22:28;40.47;;;15.60;;
70838;SDS011;58464;52.298;4.852;2023-02-11T06:24:53;27.48;;;13.15;;
70838;SDS011;58464;52.298;4.852;2023-02-11T06:27:18;29.67;;;12.17;;
70838;SDS011;58464;52.298;4.852;2023-02-11T06:29:44;30.83;;;14.50;;
70838;SDS011;58464;52.298;4.852;2023-02-11T06:32:10;25.35;;;12.27;;
70838;SDS011;58464;52.298;4.852;2023-02-11T06:34:35;28.13;;;12.82;;
70838;SDS011;58464;52.298;4.852;2023-02-11T06:37:00;32.60;;;13.50;;
70838;SDS011;58464;52.298;4.852;2023-02-11T06:39:25;35.70;;;13.63;;
70838;SDS011;58464;52.298;4.852;2023-02-11T06:41:51;29.85;;;13.75;;
70838;SDS011;58464;52.298;4.852;2023-02-11T06:44:16;39.17;;;15.57;;
70838;SDS011;58464;52.298;4.852;2023-02-11T06:46:41;31.55;;;13.32;;
70838;SDS011;58464;52.298;4.852;2023-02-11T06:49:06;40.53;;;14.00;;
70838;SDS011;58464;52.298;4.852;2023-02-11T06:51:32;29.33;;;14.52;;
70838;SDS011;58464;52.298;4.852;2023-02-11T06:53:57;31.73;;;13.80;;
70838;SDS011;58464;52.298;4.852;2023-02-11T06:56:22;35.25;;;11.68;;
70838;SDS011;58464;52.298;4.852;2023-02-11T06:58:51;34.97;;;13.30;;
70838;SDS011;58464;52.298;4.852;2023-02-11T07:01:16;22.77;;;10.90;;
70838;SDS011;58464;52.298;4.852;2023-02-11T07:03:42;39.43;;;15.83;;
70838;SDS011;58464;52.298;4.852;2023-02-11T07:06:10;30.35;;;13.30;;
70838;SDS011;58464;52.298;4.852;2023-02-11T07:08:36;37.75;;;16.05;;
70838;SDS011;58464;52.298;4.852;2023-02-11T07:11:07;25.85;;;12.57;;
70838;SDS011;58464;52.298;4.852;2023-02-11T07:13:32;28.15;;;11.30;;
70838;SDS011;58464;52.298;4.852;2023-02-11T07:15:58;31.00;;;14.33;;
70838;SDS011;58464;52.298;4.852;2023-02-11T07:18:23;25.07;;;12.83;;
70838;SDS011;58464;52.298;4.852;2023-02-11T07:20:48;23.20;;;11.37;;
70838;SDS011;58464;52.298;4.852;2023-02-11T07:23:13;31.07;;;14.77;;
70838;SDS011;58464;52.298;4.852;2023-02-11T07:25:39;32.50;;;14.13;;
70838;SDS011;58464;52.298;4.852;2023-02-11T07:28:04;32.13;;;14.70;;
70838;SDS011;58464;52.298;4.852;2023-02-11T07:30:29;29.60;;;13.20;;
70838;SDS011;58464;52.298;4.852;2023-02-11T07:32:55;26.30;;;13.50;;
70838;SDS011;58464;52.298;4.852;2023-02-11T07:35:20;25.65;;;10.55;;
70838;SDS011;58464;52.298;4.852;2023-02-11T07:37:45;24.60;;;10.97;;
70838;SDS011;58464;52.298;4.852;2023-02-11T07:40:10;21.73;;;12.63;;
70838;SDS011;58464;52.298;4.852;2023-02-11T07:42:36;24.70;;;12.77;;
70838;SDS011;58464;52.298;4.852;2023-02-11T07:45:01;26.15;;;11.73;;
70838;SDS011;58464;52.298;4.852;2023-02-11T07:47:27;23.45;;;13.27;;
70838;SDS011;58464;52.298;4.852;2023-02-11T07:49:52;25.17;;;11.43;;
70838;SDS011;58464;52.298;4.852;2023-02-11T07:52:19;25.05;;;13.02;;
70838;SDS011;58464;52.298;4.852;2023-02-11T07:54:44;27.25;;;13.75;;
70838;SDS011;58464;52.298;4.852;2023-02-11T07:57:09;25.97;;;12.83;;
70838;SDS011;58464;52.298;4.852;2023-02-11T07:59:35;32.33;;;12.43;;
70838;SDS011;58464;52.298;4.852;2023-02-11T08:02:00;22.15;;;12.02;;
70838;SDS011;58464;52.298;4.852;2023-02-11T08:04:25;28.42;;;13.02;;
70838;SDS011;58464;52.298;4.852;2023-02-11T08:06:51;29.80;;;12.93;;
70838;SDS011;58464;52.298;4.852;2023-02-11T08:09:18;28.70;;;12.65;;
70838;SDS011;58464;52.298;4.852;2023-02-11T08:11:43;23.73;;;12.13;;
70838;SDS011;58464;52.298;4.852;2023-02-11T08:14:09;18.05;;;9.02;;
70838;SDS011;58464;52.298;4.852;2023-02-11T08:16:35;19.10;;;10.43;;
70838;SDS011;58464;52.298;4.852;2023-02-11T08:19:02;25.50;;;11.75;;
70838;SDS011;58464;52.298;4.852;2023-02-11T08:21:28;28.80;;;11.82;;
70838;SDS011;58464;52.298;4.852;2023-02-11T08:23:54;19.60;;;12.07;;
70838;SDS011;58464;52.298;4.852;2023-02-11T08:26:20;35.22;;;11.25;;
70838;SDS011;58464;52.298;4.852;2023-02-11T08:28:46;24.00;;;12.60;;
70838;SDS011;58464;52.298;4.852;2023-02-11T08:31:14;27.63;;;11.02;;
70838;SDS011;58464;52.298;4.852;2023-02-11T08:33:40;35.55;;;13.18;;
70838;SDS011;58464;52.298;4.852;2023-02-11T08:36:09;18.40;;;10.05;;
70838;SDS011;58464;52.298;4.852;2023-02-11T08:38:34;26.70;;;10.82;;
70838;SDS011;58464;52.298;4.852;2023-02-11T08:41:00;23.35;;;11.40;;
70838;SDS011;58464;52.298;4.852;2023-02-11T08:43:25;25.53;;;12.40;;
70838;SDS011;58464;52.298;4.852;2023-02-11T08:45:50;18.50;;;9.50;;
70838;SDS011;58464;52.298;4.852;2023-02-11T08:48:15;21.40;;;9.70;;
70838;SDS011;58464;52.298;4.852;2023-02-11T08:50:41;24.87;;;11.07;;
70838;SDS011;58464;52.298;4.852;2023-02-11T08:53:06;16.33;;;8.40;;
70838;SDS011;58464;52.298;4.852;2023-02-11T08:55:31;20.35;;;10.95;;
70838;SDS011;58464;52.298;4.852;2023-02-11T08:57:57;24.13;;;11.45;;
70838;SDS011;58464;52.298;4.852;2023-02-11T09:00:23;21.20;;;10.50;;
70838;SDS011;58464;52.298;4.852;2023-02-11T09:02:49;18.92;;;9.45;;
70838;SDS011;58464;52.298;4.852;2023-02-11T09:05:14;24.90;;;9.40;;
70838;SDS011;58464;52.298;4.852;2023-02-11T09:07:39;13.57;;;7.43;;
70838;SDS011;58464;52.298;4.852;2023-02-11T09:10:05;19.37;;;7.73;;
70838;SDS011;58464;52.298;4.852;2023-02-11T09:12:31;18.45;;;8.32;;
70838;SDS011;58464;52.298;4.852;2023-02-11T09:14:57;15.15;;;8.13;;
70838;SDS011;58464;52.298;4.852;2023-02-11T09:17:22;22.50;;;8.23;;
70838;SDS011;58464;52.298;4.852;2023-02-11T09:19:48;18.83;;;9.83;;
70838;SDS011;58464;52.298;4.852;2023-02-11T09:22:14;8.63;;;5.13;;
70838;SDS011;58464;52.298;4.852;2023-02-11T09:24:39;20.90;;;9.95;;
70838;SDS011;58464;52.298;4.852;2023-02-11T09:27:04;18.23;;;8.80;;
70838;SDS011;58464;52.298;4.852;2023-02-11T09:29:30;20.42;;;9.57;;
70838;SDS011;58464;52.298;4.852;2023-02-11T09:31:55;17.00;;;7.50;;
70838;SDS011;58464;52.298;4.852;2023-02-11T09:34:20;18.20;;;9.68;;
70838;SDS011;58464;52.298;4.852;2023-02-11T09:36:45;16.55;;;8.27;;
70838;SDS011;58464;52.298;4.852;2023-02-11T09:39:12;17.80;;;8.27;;
70838;SDS011;58464;52.298;4.852;2023-02-11T09:44:07;11.63;;;6.38;;
70838;SDS011;58464;52.298;4.852;2023-02-11T09:46:34;22.30;;;7.00;;
70838;SDS011;58464;52.298;4.852;2023-02-11T09:49:00;15.45;;;7.82;;
70838;SDS011;58464;52.298;4.852;2023-02-11T09:54:20;19.70;;;7.72;;
70838;SDS011;58464;52.298;4.852;2023-02-11T09:56:47;18.23;;;6.75;;
70838;SDS011;58464;52.298;4.852;2023-02-11T09:59:15;13.27;;;7.80;;
70838;SDS011;58464;52.298;4.852;2023-02-11T10:06:58;10.90;;;5.70;;
70838;SDS011;58464;52.298;4.852;2023-02-11T10:12:17;7.65;;;4.20;;
70838;SDS011;58464;52.298;4.852;2023-02-11T10:17:33;13.90;;;7.20;;
70838;SDS011;58464;52.298;4.852;2023-02-11T10:22:50;16.23;;;5.97;;
70838;SDS011;58464;52.298;4.852;2023-02-11T10:25:32;13.40;;;5.82;;
70838;SDS011;58464;52.298;4.852;2023-02-11T10:27:58;11.35;;;5.53;;
70838;SDS011;58464;52.298;4.852;2023-02-11T10:30:38;11.70;;;5.93;;
70838;SDS011;58464;52.298;4.852;2023-02-11T10:35:30;16.53;;;5.53;;
70838;SDS011;58464;52.298;4.852;2023-02-11T10:37:55;17.08;;;5.88;;
70838;SDS011;58464;52.298;4.852;2023-02-11T10:40:25;9.97;;;5.10;;
70838;SDS011;58464;52.298;4.852;2023-02-11T10:42:52;15.27;;;6.90;;
70838;SDS011;58464;52.298;4.852;2023-02-11T10:45:31;23.25;;;6.78;;
70838;SDS011;58464;52.298;4.852;2023-02-11T10:47:57;8.65;;;4.95;;
70838;SDS011;58464;52.298;4.852;2023-02-11T10:50:27;14.77;;;6.13;;
70838;SDS011;58464;52.298;4.852;2023-02-11T10:52:58;43.13;;;6.80;;
70838;SDS011;58464;52.298;4.852;2023-02-11T10:55:34;11.38;;;5.25;;
70838;SDS011;58464;52.298;4.852;2023-02-11T10:58:01;7.40;;;5.05;;
70838;SDS011;58464;52.298;4.852;2023-02-11T11:00:32;11.75;;;5.90;;
70838;SDS011;58464;52.298;4.852;2023-02-11T11:03:00;8.63;;;4.55;;
70838;SDS011;58464;52.298;4.852;2023-02-11T11:05:31;12.07;;;5.70;;
70838;SDS011;58464;52.298;4.852;2023-02-11T11:08:06;16.17;;;5.60;;
70838;SDS011;58464;52.298;4.852;2023-02-11T11:10:47;15.02;;;6.25;;
70838;SDS011;58464;52.298;4.852;2023-02-11T11:13:35;11.63;;;5.60;;
70838;SDS011;58464;52.298;4.852;2023-02-11T11:18:36;11.93;;;6.88;;
70838;SDS011;58464;52.298;4.852;2023-02-11T11:21:05;14.65;;;6.82;;
70838;SDS011;58464;52.298;4.852;2023-02-11T11:23:31;12.57;;;6.88;;
70838;SDS011;58464;52.298;4.852;2023-02-11T11:26:05;14.82;;;6.95;;
70838;SDS011;58464;52.298;4.852;2023-02-11T11:31:03;9.27;;;5.55;;
70838;SDS011;58464;52.298;4.852;2023-02-11T11:33:30;11.50;;;6.03;;
70838;SDS011;58464;52.298;4.852;2023-02-11T11:36:07;13.27;;;7.03;;
70838;SDS011;58464;52.298;4.852;2023-02-11T11:38:34;12.85;;;6.28;;
70838;SDS011;58464;52.298;4.852;2023-02-11T11:41:16;9.70;;;5.03;;
70838;SDS011;58464;52.298;4.852;2023-02-11T11:43:55;14.80;;;4.88;;
70838;SDS011;58464;52.298;4.852;2023-02-11T11:46:22;14.20;;;6.45;;
70838;SDS011;58464;52.298;4.852;2023-02-11T11:48:48;11.27;;;5.55;;
70838;SDS011;58464;52.298;4.852;2023-02-11T11:51:14;9.38;;;4.70;;
70838;SDS011;58464;52.298;4.852;2023-02-11T11:53:42;12.40;;;6.00;;
70838;SDS011;58464;52.298;4.852;2023-02-11T11:56:17;13.07;;;6.35;;
70838;SDS011;58464;52.298;4.852;2023-02-11T11:58:43;10.75;;;4.65;;
70838;SDS011;58464;52.298;4.852;2023-02-11T12:03:58;7.68;;;4.45;;
70838;SDS011;58464;52.298;4.852;2023-02-11T12:06:45;19.30;;;5.40;;
70838;SDS011;58464;52.298;4.852;2023-02-11T12:09:19;11.63;;;6.20;;
70838;SDS011;58464;52.298;4.852;2023-02-11T12:14:32;13.85;;;6.18;;
70838;SDS011;58464;52.298;4.852;2023-02-11T12:27:19;14.98;;;6.13;;
70838;SDS011;58464;52.298;4.852;2023-02-11T12:32:23;17.38;;;7.35;;
70838;SDS011;58464;52.298;4.852;2023-02-11T12:35:00;15.02;;;5.88;;
70838;SDS011;58464;52.298;4.852;2023-02-11T12:40:12;8.40;;;5.35;;
70838;SDS011;58464;52.298;4.852;2023-02-11T12:42:48;17.30;;;6.35;;
70838;SDS011;58464;52.298;4.852;2023-02-11T12:45:48;17.70;;;5.43;;
70838;SDS011;58464;52.298;4.852;2023-02-11T12:48:35;12.15;;;5.32;;
70838;SDS011;58464;52.298;4.852;2023-02-11T12:56:25;39.22;;;5.35;;
70838;SDS011;58464;52.298;4.852;2023-02-11T12:58:49;9.20;;;4.57;;
70838;SDS011;58464;52.298;4.852;2023-02-11T13:01:21;9.60;;;4.05;;
70838;SDS011;58464;52.298;4.852;2023-02-11T13:03:49;10.07;;;4.68;;
70838;SDS011;58464;52.298;4.852;2023-02-11T13:06:20;10.50;;;5.50;;
70838;SDS011;58464;52.298;4.852;2023-02-11T13:08:47;14.88;;;5.38;;
70838;SDS011;58464;52.298;4.852;2023-02-11T13:11:20;10.10;;;4.47;;
70838;SDS011;58464;52.298;4.852;2023-02-11T13:21:53;10.80;;;4.78;;
70838;SDS011;58464;52.298;4.852;2023-02-11T13:32:08;13.43;;;5.27;;
70838;SDS011;58464;52.298;4.852;2023-02-11T13:37:05;12.00;;;4.00;;
70838;SDS011;58464;52.298;4.852;2023-02-11T13:39:36;10.18;;;4.28;;
70838;SDS011;58464;52.298;4.852;2023-02-11T13:42:02;8.50;;;4.27;;
70838;SDS011;58464;52.298;4.852;2023-02-11T13:44:28;8.75;;;3.88;;
70838;SDS011;58464;52.298;4.852;2023-02-11T13:47:00;13.00;;;3.95;;
70838;SDS011;58464;52.298;4.852;2023-02-11T13:49:40;13.77;;;4.38;;
70838;SDS011;58464;52.298;4.852;2023-02-11T13:52:25;8.25;;;4.13;;
70838;SDS011;58464;52.298;4.852;2023-02-11T13:54:51;7.13;;;3.30;;
70838;SDS011;58464;52.298;4.852;2023-02-11T13:57:22;9.65;;;4.28;;
70838;SDS011;58464;52.298;4.852;2023-02-11T13:59:51;13.48;;;5.32;;
70838;SDS011;58464;52.298;4.852;2023-02-11T14:10:52;13.02;;;4.55;;
70838;SDS011;58464;52.298;4.852;2023-02-11T14:13:23;16.88;;;4.57;;
70838;SDS011;58464;52.298;4.852;2023-02-11T14:16:02;7.95;;;3.85;;
70838;SDS011;58464;52.298;4.852;2023-02-11T14:21:19;18.42;;;4.53;;
70838;SDS011;58464;52.298;4.852;2023-02-11T14:23:47;6.50;;;3.00;;
70838;SDS011;58464;52.298;4.852;2023-02-11T14:28:41;9.27;;;5.10;;
70838;SDS011;58464;52.298;4.852;2023-02-11T14:31:13;13.55;;;5.13;;
70838;SDS011;58464;52.298;4.852;2023-02-11T14:39:44;8.60;;;3.50;;
70838;SDS011;58464;52.298;4.852;2023-02-11T14:41:43;8.13;;;3.55;;
70838;SDS011;58464;52.298;4.852;2023-02-11T14:44:29;9.35;;;4.25;;
70838;SDS011;58464;52.298;4.852;2023-02-11T14:46:55;13.13;;;4.50;;
70838;SDS011;58464;52.298;4.852;2023-02-11T14:49:27;16.58;;;5.07;;
70838;SDS011;58464;52.298;4.852;2023-02-11T14:51:55;10.05;;;4.90;;
70838;SDS011;58464;52.298;4.852;2023-02-11T14:54:25;12.93;;;4.53;;
70838;SDS011;58464;52.298;4.852;2023-02-11T14:57:08;8.02;;;3.50;;
70838;SDS011;58464;52.298;4.852;2023-02-11T14:59:33;7.22;;;3.25;;
70838;SDS011;58464;52.298;4.852;2023-02-11T15:02:00;8.27;;;3.88;;
70838;SDS011;58464;52.298;4.852;2023-02-11T15:04:30;13.00;;;4.53;;
70838;SDS011;58464;52.298;4.852;2023-02-11T15:06:56;11.05;;;3.90;;
70838;SDS011;58464;52.298;4.852;2023-02-11T15:09:27;12.82;;;4.32;;
70838;SDS011;58464;52.298;4.852;2023-02-11T15:11:55;9.38;;;3.35;;
70838;SDS011;58464;52.298;4.852;2023-02-11T15:14:25;11.82;;;3.92;;
70838;SDS011;58464;52.298;4.852;2023-02-11T15:16:52;16.27;;;4.15;;
70838;SDS011;58464;52.298;4.852;2023-02-11T15:19:19;11.55;;;3.92;;
70838;SDS011;58464;52.298;4.852;2023-02-11T15:21:45;11.90;;;4.35;;
70838;SDS011;58464;52.298;4.852;2023-02-11T15:24:31;14.82;;;4.95;;
70838;SDS011;58464;52.298;4.852;2023-02-11T15:27:01;10.50;;;4.07;;
70838;SDS011;58464;52.298;4.852;2023-02-11T15:29:28;8.60;;;2.95;;
70838;SDS011;58464;52.298;4.852;2023-02-11T15:32:02;8.68;;;3.10;;
70838;SDS011;58464;52.298;4.852;2023-02-11T15:34:28;12.52;;;4.50;;
70838;SDS011;58464;52.298;4.852;2023-02-11T15:36:54;9.57;;;3.33;;
70838;SDS011;58464;52.298;4.852;2023-02-11T15:39:32;8.43;;;3.95;;
70838;SDS011;58464;52.298;4.852;2023-02-11T15:44:42;9.13;;;3.22;;
70838;SDS011;58464;52.298;4.852;2023-02-11T15:47:08;13.23;;;3.47;;
70838;SDS011;58464;52.298;4.852;2023-02-11T15:49:34;5.85;;;2.75;;
70838;SDS011;58464;52.298;4.852;2023-02-11T15:51:59;10.07;;;4.38;;
70838;SDS011;58464;52.298;4.852;2023-02-11T15:54:25;9.15;;;4.38;;
70838;SDS011;58464;52.298;4.852;2023-02-11T15:56:53;6.93;;;2.72;;
70838;SDS011;58464;52.298;4.852;2023-02-11T15:59:26;7.43;;;3.55;;
70838;SDS011;58464;52.298;4.852;2023-02-11T16:01:55;12.55;;;3.80;;
70838;SDS011;58464;52.298;4.852;2023-02-11T16:04:22;11.00;;;2.95;;
70838;SDS011;58464;52.298;4.852;2023-02-11T16:06:48;22.38;;;5.20;;
70838;SDS011;58464;52.298;4.852;2023-02-11T16:14:22;16.83;;;5.03;;
70838;SDS011;58464;52.298;4.852;2023-02-11T16:16:52;8.75;;;3.83;;
70838;SDS011;58464;52.298;4.852;2023-02-11T16:19:18;9.25;;;4.72;;
70838;SDS011;58464;52.298;4.852;2023-02-11T16:21:44;14.32;;;6.32;;
70838;SDS011;58464;52.298;4.852;2023-02-11T16:24:18;17.42;;;5.40;;
70838;SDS011;58464;52.298;4.852;2023-02-11T16:26:48;10.45;;;4.45;;
70838;SDS011;58464;52.298;4.852;2023-02-11T16:29:15;9.20;;;4.43;;
70838;SDS011;58464;52.298;4.852;2023-02-11T16:31:41;11.10;;;4.25;;
70838;SDS011;58464;52.298;4.852;2023-02-11T16:34:15;10.70;;;3.28;;
70838;SDS011;58464;52.298;4.852;2023-02-11T16:36:40;12.98;;;4.90;;
70838;SDS011;58464;52.298;4.852;2023-02-11T16:39:06;12.48;;;4.45;;
70838;SDS011;58464;52.298;4.852;2023-02-11T16:41:32;22.55;;;5.50;;
70838;SDS011;58464;52.298;4.852;2023-02-11T16:43:57;12.40;;;4.45;;
70838;SDS011;58464;52.298;4.852;2023-02-11T16:46:23;11.80;;;5.20;;
70838;SDS011;58464;52.298;4.852;2023-02-11T16:48:48;13.88;;;5.85;;
70838;SDS011;58464;52.298;4.852;2023-02-11T16:51:13;9.23;;;4.30;;
70838;SDS011;58464;52.298;4.852;2023-02-11T16:53:38;12.48;;;4.35;;
70838;SDS011;58464;52.298;4.852;2023-02-11T16:56:05;13.00;;;5.63;;
70838;SDS011;58464;52.298;4.852;2023-02-11T16:58:30;14.98;;;5.47;;